createdAt,value
2018-07-13T00:01:44.503Z,101321.69
2018-07-13T00:04:13.130Z,101322.72
2018-07-13T00:06:41.760Z,101322.03
2018-07-13T00:09:12.863Z,101319.43
2018-07-13T00:11:42.870Z,101319.55
2018-07-13T00:14:20.554Z,101320.67
2018-07-13T00:16:50.558Z,101326.21
2018-07-13T00:19:19.709Z,101330.76
2018-07-13T00:21:48.387Z,101328.95
2018-07-13T00:24:17.192Z,101342.03
2018-07-13T00:26:46.007Z,101343.15
2018-07-13T00:29:14.826Z,101340.90
2018-07-13T00:31:44.148Z,101339.06
2018-07-13T00:34:12.894Z,101332.06
2018-07-13T00:36:41.474Z,101336.84
2018-07-13T00:39:11.985Z,101326.77
2018-07-13T00:41:40.993Z,101331.81
2018-07-13T00:44:09.956Z,101330.91
2018-07-13T00:46:38.715Z,101330.98
2018-07-13T00:49:08.306Z,101333.05
2018-07-13T00:51:36.938Z,101333.88
2018-07-13T00:54:05.964Z,101329.20
2018-07-13T00:56:34.563Z,101329.42
2018-07-13T00:59:03.385Z,101329.78
2018-07-13T01:01:32.101Z,101330.39
2018-07-13T01:04:00.738Z,101331.39
2018-07-13T01:06:29.374Z,101333.38
2018-07-13T01:08:57.846Z,101322.38
2018-07-13T01:11:26.450Z,101331.31
2018-07-13T01:13:55.132Z,101332.05
2018-07-13T01:16:24.551Z,101330.25
2018-07-13T01:18:53.651Z,101322.16
2018-07-13T01:21:22.156Z,101328.60
2018-07-13T01:23:50.748Z,101333.77
2018-07-13T01:26:19.212Z,101336.66
2018-07-13T01:28:47.694Z,101338.77
2018-07-13T01:31:16.730Z,101331.32
2018-07-13T01:33:45.234Z,101344.32
2018-07-13T01:36:13.730Z,101347.06
2018-07-13T01:38:42.330Z,101343.70
2018-07-13T01:41:10.901Z,101344.38
2018-07-13T01:43:43.463Z,101343.95
2018-07-13T01:46:12.487Z,101340.41
2018-07-13T01:48:42.033Z,101333.51
2018-07-13T01:51:11.157Z,101334.16
2018-07-13T01:53:40.800Z,101323.59
2018-07-13T01:56:10.281Z,101325.28
2018-07-13T01:58:38.773Z,101327.22
2018-07-13T02:01:09.150Z,101319.06
2018-07-13T02:03:38.629Z,101322.17
2018-07-13T02:06:08.107Z,101325.11
2018-07-13T02:08:36.776Z,101325.91
2018-07-13T02:11:06.580Z,101327.14
2018-07-13T02:13:35.136Z,101330.75
2018-07-13T02:16:04.055Z,101333.42
2018-07-13T02:18:32.584Z,101336.95
2018-07-13T02:21:01.676Z,101336.50
2018-07-13T02:23:31.236Z,101334.55
2018-07-13T02:26:00.260Z,101341.16
2018-07-13T02:28:29.369Z,101338.63
2018-07-13T02:30:59.045Z,101338.73
2018-07-13T02:33:27.719Z,101350.41
2018-07-13T02:35:56.685Z,101346.10
2018-07-13T02:38:26.033Z,101348.19
2018-07-13T02:40:54.525Z,101346.35
2018-07-13T02:43:24.034Z,101343.92
2018-07-13T02:45:54.456Z,101344.75
2018-07-13T02:48:24.592Z,101355.62
2018-07-13T02:50:53.225Z,101343.92
2018-07-13T02:53:22.317Z,101350.16
2018-07-13T02:55:50.897Z,101353.17
2018-07-13T02:58:20.977Z,101356.16
2018-07-13T03:00:50.858Z,101359.27
2018-07-13T03:03:19.719Z,101361.80
2018-07-13T03:05:49.215Z,101364.76
2018-07-13T03:08:18.272Z,101363.77
2018-07-13T03:10:46.831Z,101366.80
2018-07-13T03:13:15.534Z,101363.33
2018-07-13T03:15:44.087Z,101362.59
2018-07-13T03:18:12.814Z,101369.22
2018-07-13T03:20:41.675Z,101364.33
2018-07-13T03:23:10.320Z,101370.80
2018-07-13T03:25:39.538Z,101376.48
2018-07-13T03:28:08.545Z,101378.10
2018-07-13T03:30:37.140Z,101381.45
2018-07-13T03:33:05.606Z,101381.92
2018-07-13T03:35:34.105Z,101383.18
2018-07-13T03:38:02.820Z,101384.47
2018-07-13T03:40:31.504Z,101385.34
2018-07-13T03:42:59.985Z,101386.89
2018-07-13T03:45:28.790Z,101388.60
2018-07-13T03:47:57.278Z,101389.34
2018-07-13T03:50:26.189Z,101388.56
2018-07-13T03:52:55.040Z,101391.51
2018-07-13T03:55:24.528Z,101395.34
2018-07-13T03:57:54.196Z,101397.15
2018-07-13T04:00:22.802Z,101399.36
2018-07-13T04:02:52.168Z,101397.69
2018-07-13T04:05:20.777Z,101401.39
2018-07-13T04:07:50.590Z,101397.14
2018-07-13T04:10:19.166Z,101399.83
2018-07-13T04:12:48.531Z,101398.36
2018-07-13T04:15:18.091Z,101400.35
2018-07-13T04:17:46.757Z,101404.86
2018-07-13T04:20:16.470Z,101400.77
2018-07-13T04:22:45.614Z,101399.23
2018-07-13T04:25:15.938Z,101401.52
2018-07-13T04:27:45.789Z,101404.48
2018-07-13T04:30:14.859Z,101407.95
2018-07-13T04:32:44.535Z,101401.28
2018-07-13T04:35:14.217Z,101405.80
2018-07-13T04:37:42.793Z,101406.41
2018-07-13T04:40:11.336Z,101406.77
2018-07-13T04:42:40.361Z,101409.73
2018-07-13T04:45:08.837Z,101408.27
2018-07-13T04:47:38.260Z,101402.89
2018-07-13T04:50:07.349Z,101409.93
2018-07-13T04:52:36.008Z,101415.11
2018-07-13T04:55:04.813Z,101411.11
2018-07-13T04:57:33.383Z,101418.47
2018-07-13T05:00:02.061Z,101418.77
2018-07-13T05:02:30.932Z,101417.47
2018-07-13T05:04:59.559Z,101428.36
2018-07-13T05:07:28.145Z,101428.28
2018-07-13T05:09:56.888Z,101434.78
2018-07-13T05:12:25.453Z,101438.00
2018-07-13T05:14:54.445Z,101444.01
2018-07-13T05:17:23.026Z,101444.38
2018-07-13T05:19:51.524Z,101443.56
2018-07-13T05:22:20.422Z,101446.27
2018-07-13T05:24:50.373Z,101447.20
2018-07-13T05:27:20.344Z,101445.84
2018-07-13T05:29:49.091Z,101450.24
2018-07-13T05:32:17.775Z,101451.23
2018-07-13T05:34:46.580Z,101448.84
2018-07-13T05:37:15.304Z,101453.23
2018-07-13T05:39:45.333Z,101451.13
2018-07-13T05:42:13.971Z,101452.05
2018-07-13T05:44:43.241Z,101447.63
2018-07-13T05:47:12.000Z,101457.83
2018-07-13T05:49:40.694Z,101454.04
2018-07-13T05:52:10.071Z,101452.09
2018-07-13T05:54:38.723Z,101458.56
2018-07-13T05:57:08.642Z,101450.36
2018-07-13T05:59:37.495Z,101455.06
2018-07-13T06:02:06.619Z,101454.19
2018-07-13T06:04:35.547Z,101459.81
2018-07-13T06:07:04.164Z,101459.93
2018-07-13T06:09:33.426Z,101463.81
2018-07-13T06:12:02.116Z,101465.82
2018-07-13T06:14:31.281Z,101465.11
2018-07-13T06:17:00.925Z,101469.34
2018-07-13T06:19:29.532Z,101478.71
2018-07-13T06:21:58.170Z,101474.48
2018-07-13T06:24:26.806Z,101475.30
2018-07-13T06:26:55.488Z,101471.25
2018-07-13T06:29:24.178Z,101479.09
2018-07-13T06:31:53.008Z,101476.49
2018-07-13T06:34:23.448Z,101480.33
2018-07-13T06:36:52.353Z,101472.80
2018-07-13T06:39:21.901Z,101469.34
2018-07-13T06:41:50.625Z,101470.16
2018-07-13T06:44:19.493Z,101475.70
2018-07-13T06:46:49.583Z,101476.12
2018-07-13T06:49:18.952Z,101475.39
2018-07-13T06:51:47.626Z,101474.91
2018-07-13T06:54:16.307Z,101480.03
2018-07-13T06:56:45.510Z,101477.86
2018-07-13T06:59:15.719Z,101483.28
2018-07-13T07:01:45.441Z,101487.50
2018-07-13T07:04:24.194Z,101486.10
2018-07-13T07:06:53.599Z,101490.43
2018-07-13T07:09:22.754Z,101493.31
2018-07-13T07:12:07.357Z,101494.66
2018-07-13T07:14:35.985Z,101489.02
2018-07-13T07:17:04.635Z,101487.31
2018-07-13T07:19:34.126Z,101497.37
2018-07-13T07:22:03.785Z,101502.92
2018-07-13T07:24:32.471Z,101498.97
2018-07-13T07:27:01.248Z,101500.77
2018-07-13T07:29:32.329Z,101498.87
2018-07-13T07:32:00.978Z,101495.78
2018-07-13T07:34:30.386Z,101497.45
2018-07-13T07:36:58.991Z,101500.80
2018-07-13T07:39:28.339Z,101506.64
2018-07-13T07:41:57.005Z,101498.88
2018-07-13T07:44:25.692Z,101503.26
2018-07-13T07:46:54.381Z,101508.33
2018-07-13T07:49:23.241Z,101498.64
2018-07-13T07:51:53.347Z,101513.67
2018-07-13T07:54:22.581Z,101510.09
2018-07-13T07:56:51.098Z,101513.07
2018-07-13T07:59:20.937Z,101505.39
2018-07-13T08:01:49.549Z,101510.91
2018-07-13T08:04:18.115Z,101509.66
2018-07-13T08:06:47.384Z,101511.28
2018-07-13T08:09:16.011Z,101509.12
2018-07-13T08:11:44.962Z,101507.48
2018-07-13T08:14:14.836Z,101512.58
2018-07-13T08:16:43.499Z,101515.13
2018-07-13T08:19:12.983Z,101515.42
2018-07-13T08:21:44.945Z,101511.09
2018-07-13T08:24:19.162Z,101513.98
2018-07-13T08:26:48.232Z,101509.16
2018-07-13T08:29:19.017Z,101512.77
2018-07-13T08:31:47.582Z,101508.00
2018-07-13T08:34:16.203Z,101509.78
2018-07-13T08:36:45.286Z,101510.09
2018-07-13T08:39:14.186Z,101511.82
2018-07-13T08:41:43.396Z,101518.81
2018-07-13T08:44:12.616Z,101522.35
2018-07-13T08:46:41.338Z,101517.58
2018-07-13T08:49:10.066Z,101524.52
2018-07-13T08:51:38.917Z,101523.95
2018-07-13T08:54:07.758Z,101516.95
2018-07-13T08:56:36.530Z,101517.28
2018-07-13T08:59:05.349Z,101518.70
2018-07-13T09:01:34.135Z,101527.79
2018-07-13T09:04:02.808Z,101522.16
2018-07-13T09:06:31.522Z,101524.63
2018-07-13T09:09:01.273Z,101534.92
2018-07-13T09:11:31.185Z,101519.13
2018-07-13T09:14:01.309Z,101526.02
2018-07-13T09:16:30.515Z,101520.80
2018-07-13T09:19:00.220Z,101533.73
2018-07-13T09:21:29.115Z,101525.36
2018-07-13T09:23:58.865Z,101526.66
2018-07-13T09:26:27.574Z,101529.41
2018-07-13T09:28:56.316Z,101529.33
2018-07-13T09:31:24.907Z,101533.52
2018-07-13T09:33:53.559Z,101531.09
2018-07-13T09:36:23.201Z,101534.63
2018-07-13T09:38:51.807Z,101532.64
2018-07-13T09:41:20.469Z,101528.84
2018-07-13T09:43:49.198Z,101533.66
2018-07-13T09:46:17.894Z,101535.25
2018-07-13T09:48:46.853Z,101538.73
2018-07-13T09:51:15.503Z,101537.69
2018-07-13T09:53:44.198Z,101542.08
2018-07-13T09:56:12.742Z,101543.72
2018-07-13T09:58:45.029Z,101531.92
2018-07-13T10:01:19.710Z,101540.40
2018-07-13T10:03:50.794Z,101542.88
2018-07-13T10:06:20.759Z,101550.58
2018-07-13T10:08:51.077Z,101544.53
2018-07-13T10:11:19.762Z,101544.72
2018-07-13T10:13:49.219Z,101545.03
2018-07-13T10:16:18.856Z,101545.16
2018-07-13T10:18:48.593Z,101549.00
2018-07-13T10:21:17.394Z,101545.75
2018-07-13T10:23:46.722Z,101541.84
2018-07-13T10:26:21.761Z,101545.23
2018-07-13T10:28:50.666Z,101542.65
2018-07-13T10:31:19.904Z,101547.05
2018-07-13T10:33:50.275Z,101550.89
2018-07-13T10:36:20.453Z,101536.42
2018-07-13T10:38:49.223Z,101536.70
2018-07-13T10:41:17.850Z,101538.20
2018-07-13T10:43:47.166Z,101537.48
2018-07-13T10:46:15.786Z,101532.86
2018-07-13T10:48:45.334Z,101534.89
2018-07-13T10:51:14.644Z,101541.33
2018-07-13T10:53:43.262Z,101542.58
2018-07-13T10:56:11.779Z,101542.86
2018-07-13T10:58:40.990Z,101543.70
2018-07-13T11:01:10.490Z,101543.62
2018-07-13T11:03:39.518Z,101536.44
2018-07-13T11:06:08.301Z,101534.27
2018-07-13T11:08:36.900Z,101539.92
2018-07-13T11:11:05.458Z,101531.72
2018-07-13T11:13:34.282Z,101537.19
2018-07-13T11:16:06.235Z,101532.52
2018-07-13T11:18:35.598Z,101529.38
2018-07-13T11:21:05.084Z,101528.37
2018-07-13T11:23:33.677Z,101524.55
2018-07-13T11:26:02.445Z,101527.06
2018-07-13T11:28:32.009Z,101529.09
2018-07-13T11:31:00.571Z,101531.93
2018-07-13T11:33:30.017Z,101534.02
2018-07-13T11:35:58.667Z,101531.85
2018-07-13T11:38:28.226Z,101523.56
2018-07-13T11:40:56.797Z,101534.63
2018-07-13T11:43:25.330Z,101532.26
2018-07-13T11:45:55.554Z,101532.70
2018-07-13T11:48:24.205Z,101533.67
2018-07-13T11:50:52.813Z,101525.56
2018-07-13T11:53:21.396Z,101525.25
2018-07-13T11:55:50.030Z,101529.48
2018-07-13T11:58:19.682Z,101523.53
2018-07-13T12:00:49.206Z,101525.55
2018-07-13T12:03:18.141Z,101522.76
2018-07-13T12:05:46.651Z,101521.87
2018-07-13T12:08:15.539Z,101520.89
2018-07-13T12:10:46.697Z,101516.33
2018-07-13T12:13:15.468Z,101520.71
2018-07-13T12:15:45.760Z,101515.22
2018-07-13T12:18:14.330Z,101505.08
2018-07-13T12:20:43.948Z,101503.10
2018-07-13T12:23:12.953Z,101504.72
2018-07-13T12:25:43.228Z,101509.59
2018-07-13T12:28:12.056Z,101510.13
2018-07-13T12:30:40.606Z,101507.52
2018-07-13T12:33:09.133Z,101507.94
2018-07-13T12:35:37.677Z,101507.53
2018-07-13T12:38:06.572Z,101514.22
2018-07-13T12:40:36.263Z,101501.95
2018-07-13T12:43:04.865Z,101492.38
2018-07-13T12:45:34.707Z,101496.67
2018-07-13T12:48:03.486Z,101492.68
2018-07-13T12:50:32.661Z,101496.52
2018-07-13T12:53:01.229Z,101491.59
2018-07-13T12:55:30.811Z,101488.48
2018-07-13T12:57:59.279Z,101488.78
2018-07-13T13:00:27.841Z,101480.61
2018-07-13T13:02:56.975Z,101483.97
2018-07-13T13:05:26.160Z,101477.02
2018-07-13T13:07:54.751Z,101476.03
2018-07-13T13:10:24.792Z,101483.88
2018-07-13T13:12:53.728Z,101480.04
2018-07-13T13:15:22.391Z,101481.84
2018-07-13T13:17:50.934Z,101482.30
2018-07-13T13:20:19.428Z,101471.20
2018-07-13T13:22:48.422Z,101471.28
2018-07-13T13:25:17.084Z,101474.56
2018-07-13T13:27:45.568Z,101474.19
2018-07-13T13:30:14.047Z,101471.84
2018-07-13T13:32:42.697Z,101469.55
2018-07-13T13:35:11.672Z,101466.98
2018-07-13T13:37:40.890Z,101463.03
2018-07-13T13:40:09.488Z,101453.54
2018-07-13T13:42:39.761Z,101452.91
2018-07-13T13:45:09.000Z,101452.83
2018-07-13T13:47:38.012Z,101439.75
2018-07-13T13:50:07.108Z,101435.64
2018-07-13T13:52:38.212Z,101439.01
2018-07-13T13:55:07.343Z,101439.14
2018-07-13T13:57:36.335Z,101443.98
2018-07-13T14:00:05.639Z,101441.56
2018-07-13T14:02:34.821Z,101433.98
2018-07-13T14:05:03.675Z,101439.94
2018-07-13T14:07:32.710Z,101440.83
2018-07-13T14:10:01.351Z,101444.92
2018-07-13T14:12:31.676Z,101434.97
2018-07-13T14:15:00.487Z,101439.41
2018-07-13T14:17:30.078Z,101427.63
2018-07-13T14:19:58.652Z,101423.91
2018-07-13T14:22:27.536Z,101424.70
2018-07-13T14:24:56.521Z,101440.32
2018-07-13T14:27:25.929Z,101438.58
2018-07-13T14:29:54.708Z,101429.14
2018-07-13T14:32:23.249Z,101430.74
2018-07-13T14:34:52.148Z,101425.34
2018-07-13T14:37:20.734Z,101432.03
2018-07-13T14:39:49.293Z,101424.55
2018-07-13T14:42:17.974Z,101418.62
2018-07-13T14:44:46.607Z,101419.70
2018-07-13T14:47:15.984Z,101414.77
2018-07-13T14:49:44.883Z,101415.80
2018-07-13T14:53:19.148Z,101402.14
2018-07-13T14:55:48.718Z,101406.14
2018-07-13T14:58:17.489Z,101397.69
2018-07-13T15:00:48.337Z,101389.92
2018-07-13T15:03:17.515Z,101393.05
2018-07-13T15:05:46.786Z,101398.28
2018-07-13T15:08:15.973Z,101395.58
2018-07-13T15:10:44.838Z,101397.13
2018-07-13T15:13:13.529Z,101391.31
2018-07-13T15:15:42.579Z,101387.84
2018-07-13T15:18:15.676Z,101394.91
2018-07-13T15:20:44.530Z,101387.13
2018-07-13T15:23:13.270Z,101387.34
2018-07-13T15:25:41.955Z,101382.59
2018-07-13T15:28:11.558Z,101380.91
2018-07-13T15:30:40.388Z,101381.16
2018-07-13T15:33:08.987Z,101379.50
2018-07-13T15:35:38.211Z,101373.84
2018-07-13T15:38:07.024Z,101370.77
2018-07-13T15:40:35.654Z,101364.83
2018-07-13T15:43:04.460Z,101363.33
2018-07-13T15:45:33.261Z,101364.20
2018-07-13T15:48:02.926Z,101363.47
2018-07-13T15:50:32.189Z,101368.41
2018-07-13T15:53:01.028Z,101368.69
2018-07-13T15:55:35.009Z,101367.83
2018-07-13T15:58:04.093Z,101367.95
2018-07-13T16:00:33.487Z,101364.61
2018-07-13T16:03:04.620Z,101364.80
2018-07-13T16:05:34.348Z,101354.97
2018-07-13T16:08:04.654Z,101366.34
2018-07-13T16:10:33.314Z,101359.82
2018-07-13T16:13:02.191Z,101350.66
2018-07-13T16:15:31.440Z,101355.78
2018-07-13T16:18:00.249Z,101354.05
2018-07-13T16:20:29.047Z,101348.67
2018-07-13T16:22:57.943Z,101352.78
2018-07-13T16:25:26.565Z,101349.55
2018-07-13T16:27:55.284Z,101351.13
2018-07-13T16:30:26.105Z,101347.80
2018-07-13T16:32:55.646Z,101353.28
2018-07-13T16:35:24.473Z,101355.35
2018-07-13T16:37:54.050Z,101354.08
2018-07-13T16:40:22.785Z,101351.98
2018-07-13T16:42:51.977Z,101358.87
2018-07-13T16:45:20.707Z,101354.10
2018-07-13T16:47:49.342Z,101349.77
2018-07-13T16:50:18.853Z,101354.05
2018-07-13T16:52:47.798Z,101347.44
2018-07-13T16:55:16.408Z,101341.95
2018-07-13T16:57:45.253Z,101341.28
2018-07-13T17:00:15.758Z,101341.04
2018-07-13T17:02:44.948Z,101345.84
2018-07-13T17:05:13.620Z,101341.33
2018-07-13T17:07:43.046Z,101342.14
2018-07-13T17:10:12.189Z,101344.14
2018-07-13T17:12:40.755Z,101341.16
2018-07-13T17:15:10.186Z,101344.48
2018-07-13T17:17:38.737Z,101341.67
2018-07-13T17:20:07.565Z,101337.17
2018-07-13T17:22:37.832Z,101338.05
2018-07-13T17:25:06.794Z,101343.04
2018-07-13T17:27:35.608Z,101341.64
2018-07-13T17:30:05.289Z,101340.20
2018-07-13T17:32:33.875Z,101348.70
2018-07-13T17:35:02.620Z,101353.00
2018-07-13T17:37:31.780Z,101348.08
2018-07-13T17:40:00.772Z,101349.65
2018-07-13T17:42:30.272Z,101355.83
2018-07-13T17:44:58.949Z,101356.84
2018-07-13T17:47:27.993Z,101353.95
2018-07-13T17:49:56.907Z,101354.02
2018-07-13T17:52:25.483Z,101352.44
2018-07-13T17:54:54.129Z,101357.41
2018-07-13T17:57:22.669Z,101354.36
2018-07-13T17:59:51.488Z,101351.42
2018-07-13T18:02:20.419Z,101351.08
2018-07-13T18:04:49.010Z,101350.12
2018-07-13T18:07:18.021Z,101347.48
2018-07-13T18:09:46.922Z,101348.55
2018-07-13T18:12:15.840Z,101351.87
2018-07-13T18:14:45.766Z,101349.91
2018-07-13T18:17:14.646Z,101352.36
2018-07-13T18:19:44.046Z,101353.47
2018-07-13T18:22:13.428Z,101354.27
2018-07-13T18:24:42.046Z,101358.45
2018-07-13T18:27:11.529Z,101362.61
2018-07-13T18:29:40.093Z,101364.57
2018-07-13T18:32:08.714Z,101370.36
2018-07-13T18:34:37.366Z,101369.97
2018-07-13T18:37:05.958Z,101365.82
2018-07-13T18:39:34.527Z,101372.65
2018-07-13T18:42:04.306Z,101373.16
2018-07-13T18:44:32.813Z,101383.86
2018-07-13T18:47:02.855Z,101379.25
2018-07-13T18:49:31.490Z,101393.58
2018-07-13T18:52:00.108Z,101388.55
2018-07-13T18:54:28.745Z,101394.13
2018-07-13T18:56:57.872Z,101400.25
2018-07-13T18:59:26.595Z,101400.19
2018-07-13T19:01:55.737Z,101402.17
2018-07-13T19:04:25.622Z,101404.77
2018-07-13T19:06:54.414Z,101406.61
2018-07-13T19:09:23.387Z,101407.23
2018-07-13T19:11:52.075Z,101412.05
2018-07-13T19:14:21.338Z,101414.19
2018-07-13T19:16:51.634Z,101418.48
2018-07-13T19:19:20.729Z,101424.09
2018-07-13T19:21:49.353Z,101425.39
2018-07-13T19:24:19.496Z,101426.62
2018-07-13T19:26:48.561Z,101424.84
2018-07-13T19:29:18.745Z,101423.61
2018-07-13T19:31:50.278Z,101427.02
2018-07-13T19:34:19.015Z,101429.75
2018-07-13T19:36:47.972Z,101428.11
2018-07-13T19:39:17.795Z,101426.77
2018-07-13T19:41:47.517Z,101432.16
2018-07-13T19:44:16.702Z,101436.77
2018-07-13T19:46:46.609Z,101440.75
2018-07-13T19:49:15.934Z,101448.19
2018-07-13T19:51:45.803Z,101448.52
2018-07-13T19:54:14.492Z,101454.13
2018-07-13T19:56:44.042Z,101451.21
2018-07-13T19:59:12.973Z,101450.02
2018-07-13T20:01:43.366Z,101454.05
2018-07-13T20:04:15.509Z,101461.28
2018-07-13T20:06:44.013Z,101466.07
2018-07-13T20:09:12.874Z,101468.03
2018-07-13T20:11:45.080Z,101467.28
2018-07-13T20:14:14.313Z,101472.45
2018-07-13T20:16:42.971Z,101469.39
2018-07-13T20:19:11.425Z,101468.36
2018-07-13T20:21:40.369Z,101476.20
2018-07-13T20:24:10.640Z,101479.52
2018-07-13T20:26:39.541Z,101483.26
2018-07-13T20:29:08.074Z,101481.98
2018-07-13T20:31:38.345Z,101481.84
2018-07-13T20:34:07.014Z,101492.66
2018-07-13T20:36:36.520Z,101489.80
2018-07-13T20:39:07.010Z,101486.84
2018-07-13T20:41:35.889Z,101489.58
2018-07-13T20:44:05.012Z,101499.66
2018-07-13T20:46:33.696Z,101498.45
2018-07-13T20:49:03.562Z,101495.97
2018-07-13T20:51:34.328Z,101502.33
2018-07-13T20:54:03.470Z,101507.04
2018-07-13T20:56:32.174Z,101500.48
2018-07-13T20:59:01.825Z,101508.44
2018-07-13T21:01:31.379Z,101512.56
2018-07-13T21:04:00.056Z,101511.67
2018-07-13T21:06:29.906Z,101515.08
2018-07-13T21:08:58.781Z,101518.69
2018-07-13T21:11:27.335Z,101516.14
2018-07-13T21:13:56.840Z,101522.95
2018-07-13T21:16:25.454Z,101524.60
2018-07-13T21:18:54.494Z,101534.26
2018-07-13T21:21:25.242Z,101536.80
2018-07-13T21:23:56.160Z,101530.61
2018-07-13T21:26:25.216Z,101531.25
2018-07-13T21:28:54.585Z,101534.30
2018-07-13T21:31:23.212Z,101531.66
2018-07-13T21:33:52.201Z,101538.20
2018-07-13T21:36:20.805Z,101540.19
2018-07-13T21:38:49.958Z,101530.05
2018-07-13T21:41:18.836Z,101529.34
2018-07-13T21:43:47.864Z,101523.36
2018-07-13T21:46:16.870Z,101522.03
2018-07-13T21:48:45.705Z,101521.67
2018-07-13T21:51:14.417Z,101518.28
2018-07-13T21:53:45.099Z,101518.74
2018-07-13T21:56:14.909Z,101522.38
2018-07-13T21:58:44.200Z,101526.81
2018-07-13T22:01:14.335Z,101533.48
2018-07-13T22:03:43.539Z,101529.12
2018-07-13T22:06:12.225Z,101530.53
2018-07-13T22:08:41.446Z,101531.14
2018-07-13T22:11:11.624Z,101529.20
2018-07-13T22:13:41.370Z,101535.13
2018-07-13T22:16:10.746Z,101531.08
2018-07-13T22:18:39.342Z,101540.23
2018-07-13T22:21:08.307Z,101544.58
2018-07-13T22:23:37.226Z,101540.31
2018-07-13T22:26:06.654Z,101538.24
2018-07-13T22:28:35.470Z,101541.20
2018-07-13T22:31:03.960Z,101543.88
2018-07-13T22:33:33.442Z,101548.77
2018-07-13T22:36:02.540Z,101549.22
2018-07-13T22:38:31.412Z,101546.40
2018-07-13T22:41:00.640Z,101543.98
2018-07-13T22:43:29.487Z,101543.90
2018-07-13T22:45:58.543Z,101555.66
2018-07-13T22:48:27.087Z,101556.91
2018-07-13T22:50:55.675Z,101564.03
2018-07-13T22:53:25.212Z,101560.44
2018-07-13T22:55:54.221Z,101563.41
2018-07-13T22:58:23.399Z,101567.32
2018-07-13T23:00:51.854Z,101569.91
2018-07-13T23:03:20.671Z,101566.56
2018-07-13T23:05:49.209Z,101566.69
2018-07-13T23:08:18.320Z,101565.77
2018-07-13T23:10:46.904Z,101571.39
2018-07-13T23:13:15.571Z,101575.23
2018-07-13T23:15:44.058Z,101578.36
2018-07-13T23:18:12.730Z,101573.66
2018-07-13T23:20:42.637Z,101574.16
2018-07-13T23:23:12.614Z,101575.55
2018-07-13T23:25:41.239Z,101576.43
2018-07-13T23:28:09.789Z,101569.39
2018-07-13T23:30:39.329Z,101574.03
2018-07-13T23:33:07.829Z,101572.25
2018-07-13T23:35:36.476Z,101569.67
2018-07-13T23:38:05.471Z,101565.75
2018-07-13T23:40:37.925Z,101570.48
2018-07-13T23:43:06.716Z,101563.91
2018-07-13T23:45:37.299Z,101565.75
2018-07-13T23:48:07.528Z,101574.05
2018-07-13T23:50:36.139Z,101567.66
2018-07-13T23:53:06.518Z,101560.31
2018-07-13T23:55:36.306Z,101559.32
2018-07-13T23:58:05.208Z,101558.94
